Time;durP1;ratioP1;P1;durP2;ratioP2;P2;SDS_P1;SDS_P2;PMS_P1;PMS_P2;Temp;Humidity;BMP_temperature;BMP_pressure;BME280_temperature;BME280_humidity;BME280_pressure;Samples;Min_cycle;Max_cycle;Signal;HPM_P1;HPM_P2
2021/08/28 16:08:26;;;;;;;3.22;2.55;;;;;;;20.48;65.47;100673.16;2613885;36;20034;-51
2021/08/28 16:10:53;;;;;;;2.22;2.00;;;;;;;20.64;67.77;100679.81;2615235;31;20046;-53
2021/08/28 16:13:21;;;;;;;2.95;2.40;;;;;;;20.42;69.35;100676.66;2616476;31;20027;-52
2021/08/28 16:15:48;;;;;;;3.15;2.85;;;;;;;20.24;67.34;100677.78;2614891;36;20053;-55
2021/08/28 16:18:15;;;;;;;7.13;3.60;;;;;;;20.39;67.13;100673.25;2616893;31;20469;-51
2021/08/28 16:20:48;;;;;;;4.75;3.40;;;;;;;20.21;68.52;100679.59;2614410;36;20072;-51
2021/08/28 16:23:24;;;;;;;3.60;3.20;;;;;;;20.05;70.51;100682.38;2614614;36;20538;-56
2021/08/28 16:25:55;;;;;;;5.18;4.10;;;;;;;19.87;67.04;100690.41;2614046;36;20034;-50
2021/08/28 16:28:23;;;;;;;4.03;3.70;;;;;;;20.51;66.33;100688.69;2614338;36;20073;-53
2021/08/28 16:30:50;;;;;;;3.28;2.97;;;;;;;20.20;68.30;100688.25;2615168;31;20034;-56
2021/08/28 16:33:17;;;;;;;4.72;2.60;;;;;;;20.11;68.04;100672.78;2615748;31;20042;-53
2021/08/28 16:35:46;;;;;;;2.53;1.85;;;;;;;19.82;70.15;100681.81;2614822;36;20629;-56
2021/08/28 16:38:14;;;;;;;2.88;1.92;;;;;;;19.67;71.55;100682.00;2614476;31;20031;-56
2021/08/28 16:40:41;;;;;;;2.35;2.15;;;;;;;19.63;73.09;100683.78;2615012;36;20122;-56
2021/08/28 16:43:09;;;;;;;10.18;7.38;;;;;;;19.71;73.38;100684.56;2614887;36;20073;-55
2021/08/28 16:45:36;;;;;;;7.03;5.35;;;;;;;19.54;73.67;100678.66;2612938;36;20031;-55
2021/08/28 16:48:04;;;;;;;2.60;2.40;;;;;;;19.61;71.26;100679.50;2615196;31;20027;-54
2021/08/28 16:50:31;;;;;;;2.88;2.67;;;;;;;19.47;74.19;100675.28;2615206;36;20030;-53
2021/08/28 16:52:59;;;;;;;2.53;2.33;;;;;;;19.20;77.34;100688.53;2614694;36;20042;-56
2021/08/28 16:55:26;;;;;;;1.98;1.88;;;;;;;18.89;77.40;100682.78;2614197;31;20087;-53
2021/08/28 16:57:53;;;;;;;2.83;2.50;;;;;;;19.25;77.02;100691.94;2613269;31;20696;-55
2021/08/28 17:00:21;;;;;;;4.25;3.88;;;;;;;18.93;78.74;100687.06;2614569;31;20195;-54
2021/08/28 17:02:48;;;;;;;8.77;6.70;;;;;;;18.73;80.42;100679.44;2614472;36;20122;-53
2021/08/28 17:05:15;;;;;;;6.30;5.63;;;;;;;18.78;80.68;100680.28;2614780;36;20070;-54
2021/08/28 17:07:43;;;;;;;27.23;20.60;;;;;;;18.44;81.54;100677.91;2614651;36;20045;-53
2021/08/28 17:10:10;;;;;;;48.00;30.77;;;;;;;18.49;81.54;100680.47;2616185;31;20030;-51
2021/08/28 17:12:37;;;;;;;61.10;39.50;;;;;;;18.90;79.44;100685.34;2616219;31;20030;-50
2021/08/28 17:15:05;;;;;;;55.97;36.83;;;;;;;18.62;81.09;100684.66;2614959;36;20034;-56
2021/08/28 17:17:32;;;;;;;32.95;25.17;;;;;;;18.34;82.61;100678.81;2616980;31;20450;-55
2021/08/28 17:19:59;;;;;;;14.07;10.45;;;;;;;18.25;82.81;100679.72;2616603;31;20034;-55
2021/08/28 17:22:27;;;;;;;9.60;8.40;;;;;;;18.43;82.65;100675.31;2616087;31;20042;-56
2021/08/28 17:24:54;;;;;;;8.45;7.68;;;;;;;18.19;83.69;100681.50;2616243;31;20438;-53
2021/08/28 17:27:21;;;;;;;9.30;7.40;;;;;;;18.08;84.60;100679.00;2614735;36;20034;-54
2021/08/28 17:29:48;;;;;;;7.85;6.95;;;;;;;17.95;86.51;100683.38;2615753;31;20668;-53
2021/08/28 17:32:15;;;;;;;7.40;6.03;;;;;;;17.69;91.86;100680.84;2614943;36;20061;-57
2021/08/28 17:34:42;;;;;;;6.57;5.55;;;;;;;17.72;92.80;100691.19;2615729;31;20446;-55
2021/08/28 17:37:10;;;;;;;7.50;6.75;;;;;;;17.63;93.60;100686.03;2614618;36;20069;-52
2021/08/28 17:39:37;;;;;;;9.02;7.95;;;;;;;17.82;91.70;100686.88;2614919;31;20022;-53
2021/08/28 17:42:04;;;;;;;8.73;7.80;;;;;;;17.78;89.93;100691.19;2615334;36;20042;-52
2021/08/28 17:44:32;;;;;;;6.05;5.18;;;;;;;17.88;88.48;100697.19;2615756;36;20042;-52
2021/08/28 17:47:00;;;;;;;7.85;7.15;;;;;;;17.78;89.64;100698.09;2616254;31;20585;-52
2021/08/28 17:49:28;;;;;;;5.80;5.30;;;;;;;17.93;88.71;100698.03;2617015;31;20068;-53
2021/08/28 17:51:55;;;;;;;8.20;7.40;;;;;;;17.68;92.10;100693.81;2615382;36;20031;-58
2021/08/28 17:54:22;;;;;;;9.15;7.93;;;;;;;17.50;94.62;100692.13;2615679;36;20038;-53
2021/08/28 17:56:50;;;;;;;9.40;8.48;;;;;;;17.63;94.68;100701.59;2615584;36;20038;-54
